Portada
METAR-TAF:

METAR-TAF

Aeroports :

Qazvín, Iran

latitud: 36-15N, longitud: 050-00E, altitud: 1278 m

Observació

L'informe es va fer fa 24 minuts, a les 08:00 UTC
Vent 2 kt del Sud
Temperatura 15°C
Humitat 31%
Pressió 1025 hPa
Visibilitat: 5000 m
calitja

METAR: OIIK 120800Z 19002KT 5000 HZ NSC 15/M02 Q1025

Hora: 11:54 (08:24 UTC)


TAF: manca

Observacions i pronòstics meteorològics de més de 4000 aeroports (METAR i TAF).

Les estacions disponibles són els punts grocs i vermells al mapa.

Posi el ratolí al punt desitjat per veure el nom de l'estació.

Feu clic per veure les observacions i els pronòstics meteorològics.

Per canviar el mapa: feu clic els botons verds amb una creu de color negre per apropar; al botó verd amb un guió per allunyar la imatge; o en les fletxes verdes per a mapes adjacents.


METAR-TAF: